createdAt,value
2023-04-12T00:01:40.301Z,99157.97
2023-04-12T00:04:07.833Z,99153.69
2023-04-12T00:06:36.630Z,99156.50
2023-04-12T00:09:04.536Z,99150.31
2023-04-12T00:11:33.030Z,99149.56
2023-04-12T00:13:59.986Z,99152.78
2023-04-12T00:16:29.518Z,99151.28
2023-04-12T00:18:57.715Z,99147.09
2023-04-12T00:21:25.098Z,99151.56
2023-04-12T00:23:53.278Z,99141.22
2023-04-12T00:26:22.042Z,99143.84
2023-04-12T00:28:49.329Z,99142.97
2023-04-12T00:31:16.806Z,99140.56
2023-04-12T00:33:45.265Z,99139.94
2023-04-12T00:36:12.683Z,99138.31
2023-04-12T00:38:41.133Z,99140.94
2023-04-12T00:41:08.825Z,99141.88
2023-04-12T00:43:37.028Z,99136.50
2023-04-12T00:46:04.633Z,99135.69
2023-04-12T00:48:33.202Z,99136.38
2023-04-12T00:51:07.845Z,99140.75
2023-04-12T00:53:39.475Z,99131.84
2023-04-12T00:56:07.955Z,99134.56
2023-04-12T00:58:36.396Z,99140.50
2023-04-12T01:01:03.552Z,99142.41
2023-04-12T01:03:31.282Z,99145.78
2023-04-12T01:06:14.257Z,99141.44
2023-04-12T01:09:05.457Z,99151.06
2023-04-12T01:11:43.018Z,99151.91
2023-04-12T01:14:47.252Z,99144.78
2023-04-12T01:17:17.573Z,99154.53
2023-04-12T01:20:23.554Z,99148.75
2023-04-12T01:23:17.404Z,99145.28
2023-04-12T01:26:24.484Z,99149.63
2023-04-12T01:28:54.604Z,99155.09
2023-04-12T01:31:26.316Z,99149.84
2023-04-12T01:33:56.958Z,99149.91
2023-04-12T01:36:27.637Z,99149.75
2023-04-12T01:38:56.441Z,99149.91
2023-04-12T01:41:25.912Z,99148.22
2023-04-12T01:43:53.265Z,99149.78
2023-04-12T01:46:23.360Z,99145.38
2023-04-12T01:48:53.755Z,99141.22
2023-04-12T01:51:37.363Z,99146.50
2023-04-12T01:54:11.992Z,99141.44
2023-04-12T01:56:45.172Z,99145.78
2023-04-12T01:59:16.477Z,99149.19
2023-04-12T02:01:47.266Z,99142.91
2023-04-12T02:04:17.665Z,99149.44
2023-04-12T02:06:46.628Z,99148.75
2023-04-12T02:09:15.014Z,99158.09
2023-04-12T02:11:46.424Z,99151.91
2023-04-12T02:14:13.423Z,99157.03
2023-04-12T02:16:42.719Z,99146.50
2023-04-12T02:19:10.892Z,99151.06
2023-04-12T02:21:44.507Z,99148.59
2023-04-12T02:24:12.786Z,99148.50
2023-04-12T02:26:41.004Z,99142.44
2023-04-12T02:29:10.587Z,99139.69
2023-04-12T02:31:39.644Z,99138.16
2023-04-12T02:34:07.232Z,99136.53
2023-04-12T02:36:38.200Z,99130.44
2023-04-12T02:39:05.678Z,99138.06
2023-04-12T02:41:33.548Z,99134.66
2023-04-12T02:44:00.917Z,99134.53
2023-04-12T02:46:34.592Z,99127.66
2023-04-12T02:49:01.917Z,99129.50
2023-04-12T02:51:29.374Z,99125.31
2023-04-12T02:53:58.260Z,99124.69
2023-04-12T02:56:26.856Z,99121.25
2023-04-12T02:58:55.326Z,99122.44
2023-04-12T03:01:22.993Z,99116.41
2023-04-12T03:03:50.296Z,99115.44
2023-04-12T03:06:18.796Z,99121.50
2023-04-12T03:08:48.332Z,99115.72
2023-04-12T03:11:16.684Z,99121.72
2023-04-12T03:13:44.203Z,99108.06
2023-04-12T03:16:30.304Z,99118.34
2023-04-12T03:18:58.013Z,99109.03
2023-04-12T03:21:26.204Z,99109.09
2023-04-12T03:23:53.481Z,99107.63
2023-04-12T03:26:21.146Z,99111.25
2023-04-12T03:28:49.727Z,99107.91
2023-04-12T03:31:21.297Z,99110.25
2023-04-12T03:33:49.484Z,99106.16
2023-04-12T03:36:17.123Z,99099.19
2023-04-12T03:38:46.543Z,99098.16
2023-04-12T03:41:17.968Z,99089.28
2023-04-12T03:43:45.698Z,99091.09
2023-04-12T03:46:15.774Z,99102.22
2023-04-12T03:48:43.269Z,99101.75
2023-04-12T03:51:12.649Z,99100.09
2023-04-12T03:53:41.538Z,99104.38
2023-04-12T03:56:15.111Z,99101.06
2023-04-12T03:58:43.694Z,99104.38
2023-04-12T04:01:14.029Z,99111.47
2023-04-12T04:03:41.529Z,99114.00
2023-04-12T04:06:09.349Z,99121.78
2023-04-12T04:08:37.840Z,99131.38
2023-04-12T04:11:06.673Z,99119.44
2023-04-12T04:13:34.992Z,99124.53
2023-04-12T04:16:07.277Z,99121.97
2023-04-12T04:18:36.242Z,99121.13
2023-04-12T04:21:07.794Z,99128.16
2023-04-12T04:23:39.313Z,99119.28
2023-04-12T04:26:11.103Z,99120.19
2023-04-12T04:28:39.287Z,99121.13
2023-04-12T04:31:06.873Z,99120.13
2023-04-12T04:33:34.263Z,99125.25
2023-04-12T04:36:04.807Z,99122.53
2023-04-12T04:38:35.354Z,99125.19
2023-04-12T04:41:06.900Z,99124.25
2023-04-12T04:43:35.555Z,99131.09
2023-04-12T04:46:04.473Z,99125.00
2023-04-12T04:48:31.734Z,99112.91
2023-04-12T04:51:01.142Z,99111.91
2023-04-12T04:53:28.585Z,99116.06
2023-04-12T04:55:59.870Z,99125.44
2023-04-12T04:58:27.657Z,99120.16
2023-04-12T05:00:58.207Z,99124.44
2023-04-12T05:03:30.280Z,99118.94
2023-04-12T05:05:58.198Z,99131.03
2023-04-12T05:08:25.761Z,99126.59
2023-04-12T05:10:53.967Z,99122.13
2023-04-12T05:13:22.591Z,99131.72
2023-04-12T05:15:50.329Z,99130.56
2023-04-12T05:18:18.415Z,99134.13
2023-04-12T05:20:46.283Z,99131.47
2023-04-12T05:23:13.385Z,99135.75
2023-04-12T05:25:48.547Z,99143.34
2023-04-12T05:28:17.649Z,99129.16
2023-04-12T05:30:46.809Z,99142.09
2023-04-12T05:33:14.025Z,99133.97
2023-04-12T05:35:41.528Z,99133.00
2023-04-12T05:38:08.569Z,99128.44
2023-04-12T05:40:36.883Z,99117.81
2023-04-12T05:43:05.321Z,99113.28
2023-04-12T05:45:32.856Z,99100.81
2023-04-12T05:48:00.422Z,99103.00
2023-04-12T05:50:27.717Z,99106.88
2023-04-12T05:52:56.195Z,99100.47
2023-04-12T05:55:23.734Z,99097.44
2023-04-12T05:57:51.800Z,99102.78
2023-04-12T06:00:21.745Z,99101.63
2023-04-12T06:02:50.669Z,99104.59
2023-04-12T06:05:19.665Z,99096.25
2023-04-12T06:07:49.950Z,99108.97
2023-04-12T06:10:18.108Z,99109.59
2023-04-12T06:12:45.869Z,99112.66
2023-04-12T06:15:22.378Z,99102.50
2023-04-12T06:17:51.744Z,99100.44
2023-04-12T06:20:19.408Z,99097.44
2023-04-12T06:22:47.704Z,99096.16
2023-04-12T06:25:14.925Z,99093.44
2023-04-12T06:27:42.235Z,99091.44
2023-04-12T06:30:09.835Z,99098.22
2023-04-12T06:32:38.951Z,99094.41
2023-04-12T06:35:07.134Z,99083.81
2023-04-12T06:37:34.644Z,99081.94
2023-04-12T06:40:04.235Z,99071.81
2023-04-12T06:42:31.602Z,99074.25
2023-04-12T06:44:58.910Z,99071.13
2023-04-12T06:47:26.972Z,99073.72
2023-04-12T06:49:56.327Z,99076.63
2023-04-12T06:52:28.057Z,99075.03
2023-04-12T06:54:57.082Z,99080.00
2023-04-12T06:57:26.483Z,99082.72
2023-04-12T06:59:53.819Z,99080.59
2023-04-12T07:02:21.197Z,99079.69
2023-04-12T07:04:53.139Z,99076.72
2023-04-12T07:07:21.130Z,99073.81
2023-04-12T07:09:48.292Z,99071.91
2023-04-12T07:12:15.519Z,99072.44
2023-04-12T07:14:45.758Z,99065.78
2023-04-12T07:17:12.787Z,99069.19
2023-04-12T07:19:42.335Z,99074.25
2023-04-12T07:22:10.846Z,99067.72
2023-04-12T07:24:40.215Z,99065.84
2023-04-12T07:27:07.232Z,99066.22
2023-04-12T07:29:35.048Z,99065.94
2023-04-12T07:32:02.129Z,99058.75
2023-04-12T07:34:29.920Z,99054.28
2023-04-12T07:36:57.057Z,99053.03
2023-04-12T07:39:24.498Z,99056.44
2023-04-12T07:41:52.161Z,99062.47
2023-04-12T07:44:19.417Z,99057.53
2023-04-12T07:46:46.892Z,99054.00
2023-04-12T07:49:14.363Z,99054.63
2023-04-12T07:51:42.962Z,99050.94
2023-04-12T07:54:10.307Z,99050.81
2023-04-12T07:56:37.707Z,99048.97
2023-04-12T07:59:05.173Z,99042.03
2023-04-12T08:01:32.999Z,99044.16
2023-04-12T08:04:01.696Z,99038.47
2023-04-12T08:06:32.383Z,99042.03
2023-04-12T08:09:01.396Z,99042.66
2023-04-12T08:11:28.608Z,99040.09
2023-04-12T08:13:56.373Z,99040.03
2023-04-12T08:16:23.627Z,99040.41
2023-04-12T08:18:51.293Z,99043.13
2023-04-12T08:21:18.582Z,99039.97
2023-04-12T08:23:47.245Z,99032.69
2023-04-12T08:26:14.395Z,99029.50
2023-04-12T08:28:41.878Z,99025.03
2023-04-12T08:31:09.414Z,99031.97
2023-04-12T08:33:36.878Z,99029.72
2023-04-12T08:36:05.475Z,99028.00
2023-04-12T08:41:05.827Z,99034.97
2023-04-12T08:43:35.222Z,99026.84
2023-04-12T08:46:02.571Z,99024.38
2023-04-12T08:48:29.875Z,99028.00
2023-04-12T08:50:58.172Z,99024.59
2023-04-12T08:53:26.778Z,99014.94
2023-04-12T08:55:54.472Z,99010.59
2023-04-12T08:58:22.755Z,99019.47
2023-04-12T09:00:50.278Z,99020.03
2023-04-12T09:03:17.820Z,99015.09
2023-04-12T09:05:45.867Z,99000.66
2023-04-12T09:08:13.040Z,98999.16
2023-04-12T09:10:40.485Z,99002.88
2023-04-12T09:13:10.047Z,99001.69
2023-04-12T09:15:51.495Z,98993.22
2023-04-12T09:18:19.276Z,99000.97
2023-04-12T09:20:46.789Z,98996.59
2023-04-12T09:23:21.749Z,98999.00
2023-04-12T09:25:53.819Z,98992.28
2023-04-12T09:28:29.108Z,98986.91
2023-04-12T09:30:58.464Z,98981.81
2023-04-12T09:33:37.828Z,98986.63
2023-04-12T09:36:14.712Z,98984.53
2023-04-12T09:39:00.396Z,98975.19
2023-04-12T09:41:29.131Z,98973.34
2023-04-12T09:43:57.071Z,98966.88
2023-04-12T09:46:24.967Z,98965.16
2023-04-12T09:48:55.175Z,98954.56
2023-04-12T09:51:31.498Z,98952.72
2023-04-12T09:54:01.331Z,98953.06
2023-04-12T09:56:33.833Z,98944.97
2023-04-12T09:59:04.211Z,98940.25
2023-04-12T10:01:38.960Z,98945.09
2023-04-12T10:04:08.414Z,98946.13
2023-04-12T10:06:37.531Z,98940.47
2023-04-12T10:09:05.609Z,98937.47
2023-04-12T10:11:34.596Z,98935.66
2023-04-12T10:14:06.454Z,98932.09
2023-04-12T10:16:40.683Z,98932.56
2023-04-12T10:19:09.953Z,98929.75
2023-04-12T10:21:38.175Z,98925.53
2023-04-12T10:24:07.458Z,98922.19
2023-04-12T10:26:35.903Z,98925.69
2023-04-12T10:29:36.621Z,98921.13
2023-04-12T10:32:24.886Z,98915.84
2023-04-12T10:34:58.180Z,98909.53
2023-04-12T10:38:03.479Z,98915.06
2023-04-12T10:40:35.935Z,98908.94
2023-04-12T10:43:31.308Z,98909.09
2023-04-12T10:46:04.499Z,98911.91
2023-04-12T10:48:33.675Z,98905.56
2023-04-12T10:51:25.678Z,98900.13
2023-04-12T10:53:54.182Z,98894.56
2023-04-12T10:56:32.417Z,98904.78
2023-04-12T10:59:02.093Z,98898.69
2023-04-12T11:01:31.993Z,98891.19
2023-04-12T11:04:08.322Z,98891.94
2023-04-12T11:06:43.476Z,98893.47
2023-04-12T11:09:34.758Z,98884.63
2023-04-12T11:12:04.733Z,98882.81
2023-04-12T11:14:50.177Z,98881.47
2023-04-12T11:17:17.521Z,98870.38
2023-04-12T11:19:54.639Z,98870.03
2023-04-12T11:22:24.925Z,98864.91
2023-04-12T11:25:03.620Z,98854.06
2023-04-12T11:27:38.371Z,98850.13
2023-04-12T11:30:06.904Z,98844.97
2023-04-12T11:32:35.660Z,98838.09
2023-04-12T11:35:03.430Z,98828.47
2023-04-12T11:37:31.585Z,98819.06
2023-04-12T11:39:59.468Z,98819.22
2023-04-12T11:42:29.661Z,98811.56
2023-04-12T11:45:01.001Z,98816.34
2023-04-12T11:47:33.752Z,98819.56
2023-04-12T11:50:00.952Z,98809.97
2023-04-12T11:52:34.664Z,98806.41
2023-04-12T11:55:05.172Z,98801.94
2023-04-12T11:57:33.866Z,98792.16
2023-04-12T12:00:01.826Z,98792.16
2023-04-12T12:02:33.011Z,98785.03
2023-04-12T12:05:07.184Z,98782.47
2023-04-12T12:07:36.953Z,98778.59
2023-04-12T12:10:06.661Z,98783.25
2023-04-12T12:12:34.602Z,98770.38
2023-04-12T12:15:02.814Z,98771.00
2023-04-12T12:17:30.165Z,98769.34
2023-04-12T12:20:02.820Z,98757.50
2023-04-12T12:22:31.173Z,98762.31
2023-04-12T12:24:59.076Z,98761.09
2023-04-12T12:27:35.719Z,98750.59
2023-04-12T12:30:05.146Z,98739.22
2023-04-12T12:32:35.334Z,98730.88
2023-04-12T12:35:04.179Z,98736.97
2023-04-12T12:37:32.506Z,98728.75
2023-04-12T12:40:16.901Z,98731.41
2023-04-12T12:42:54.561Z,98730.34
2023-04-12T12:45:26.956Z,98722.72
2023-04-12T12:47:59.453Z,98730.97
2023-04-12T12:50:28.667Z,98721.78
2023-04-12T12:52:56.981Z,98708.03
2023-04-12T12:55:25.227Z,98706.81
2023-04-12T12:58:07.666Z,98704.47
2023-04-12T13:00:42.129Z,98701.91
2023-04-12T13:03:09.209Z,98689.44
2023-04-12T13:05:38.977Z,98696.66
2023-04-12T13:08:06.510Z,98697.41
2023-04-12T13:10:34.028Z,98692.41
2023-04-12T13:13:01.991Z,98693.19
2023-04-12T13:15:29.577Z,98690.19
2023-04-12T13:17:56.891Z,98699.34
2023-04-12T13:20:24.574Z,98682.00
2023-04-12T13:22:53.214Z,98675.97
2023-04-12T13:25:21.867Z,98685.63
2023-04-12T13:27:50.272Z,98675.34
2023-04-12T13:30:25.306Z,98674.56
2023-04-12T13:32:53.997Z,98666.47
2023-04-12T13:35:21.510Z,98671.53
2023-04-12T13:37:49.707Z,98667.41
2023-04-12T13:40:16.784Z,98652.75
2023-04-12T13:42:44.536Z,98652.66
2023-04-12T13:45:12.539Z,98642.31
2023-04-12T13:47:41.205Z,98645.88
2023-04-12T13:50:14.739Z,98641.06
2023-04-12T13:52:42.147Z,98639.59
2023-04-12T13:55:10.443Z,98630.00
2023-04-12T13:57:37.704Z,98634.28
2023-04-12T14:00:05.673Z,98625.38
2023-04-12T14:02:32.998Z,98627.56
2023-04-12T14:05:01.136Z,98616.25
2023-04-12T14:07:29.759Z,98621.31
2023-04-12T14:09:58.081Z,98630.91
2023-04-12T14:12:25.875Z,98639.72
2023-04-12T14:14:53.453Z,98629.16
2023-04-12T14:17:21.278Z,98610.34
2023-04-12T14:19:49.894Z,98617.25
2023-04-12T14:22:17.447Z,98612.34
2023-04-12T14:24:44.851Z,98610.44
2023-04-12T14:27:13.015Z,98617.97
2023-04-12T14:29:41.291Z,98613.00
2023-04-12T14:32:08.747Z,98598.16
2023-04-12T14:34:38.360Z,98597.28
2023-04-12T14:37:06.219Z,98598.72
2023-04-12T14:39:33.674Z,98606.09
2023-04-12T14:42:01.767Z,98612.41
2023-04-12T14:44:29.022Z,98600.09
2023-04-12T14:46:56.613Z,98601.13
2023-04-12T14:49:24.027Z,98602.31
2023-04-12T14:51:51.548Z,98595.84
2023-04-12T14:54:18.997Z,98590.50
2023-04-12T14:56:53.325Z,98596.59
2023-04-12T14:59:23.667Z,98583.41
2023-04-12T15:01:53.764Z,98590.53
2023-04-12T15:04:22.874Z,98584.56
2023-04-12T15:06:51.291Z,98571.34
2023-04-12T15:09:18.980Z,98585.56
2023-04-12T15:11:50.824Z,98589.59
2023-04-12T15:14:20.865Z,98586.78
2023-04-12T15:16:50.532Z,98578.88
2023-04-12T15:19:22.928Z,98576.88
2023-04-12T15:21:55.579Z,98579.84
2023-04-12T15:24:23.912Z,98579.75
2023-04-12T15:26:53.217Z,98577.44
2023-04-12T15:36:43.898Z,98567.22
2023-04-12T15:39:13.955Z,98575.66
2023-04-12T15:41:43.196Z,98569.13
2023-04-12T15:44:14.736Z,98565.91
2023-04-12T15:46:42.934Z,98558.47
2023-04-12T15:49:11.358Z,98562.84
2023-04-12T15:51:39.118Z,98551.41
2023-04-12T15:54:07.234Z,98548.81
2023-04-12T15:56:36.054Z,98550.25
2023-04-12T15:59:04.872Z,98554.28
2023-04-12T16:01:32.012Z,98549.25
2023-04-12T16:03:59.782Z,98552.28
2023-04-12T16:06:34.900Z,98547.84
2023-04-12T16:09:04.878Z,98539.97
2023-04-12T16:11:35.562Z,98541.38
2023-04-12T16:14:04.289Z,98532.00
2023-04-12T16:16:31.973Z,98536.94
2023-04-12T16:19:00.486Z,98523.94
2023-04-12T16:21:30.531Z,98531.63
2023-04-12T16:23:58.798Z,98522.78
2023-04-12T16:26:27.514Z,98533.91
2023-04-12T16:28:56.349Z,98528.00
2023-04-12T16:31:26.755Z,98516.25
2023-04-12T16:33:55.413Z,98513.84
2023-04-12T16:36:27.588Z,98516.97
2023-04-12T16:39:04.186Z,98507.75
2023-04-12T16:41:37.656Z,98501.94
2023-04-12T16:44:05.719Z,98501.19
2023-04-12T16:46:33.183Z,98493.88
2023-04-12T16:49:04.056Z,98500.25
2023-04-12T16:51:36.720Z,98490.91
2023-04-12T16:54:05.186Z,98502.50
2023-04-12T16:56:32.830Z,98506.44
2023-04-12T16:59:02.966Z,98505.50
2023-04-12T17:01:32.105Z,98508.63
2023-04-12T17:04:01.165Z,98509.25
2023-04-12T17:06:35.728Z,98514.28
2023-04-12T17:09:03.864Z,98509.41
2023-04-12T17:11:37.437Z,98502.53
2023-04-12T17:14:08.108Z,98507.47
2023-04-12T17:16:37.119Z,98509.59
2023-04-12T17:19:05.891Z,98503.16
2023-04-12T17:21:43.614Z,98502.63
2023-04-12T17:24:11.622Z,98502.44
2023-04-12T17:26:41.077Z,98507.50
2023-04-12T17:29:12.115Z,98506.66
2023-04-12T17:31:44.299Z,98497.75
2023-04-12T17:34:12.135Z,98505.63
2023-04-12T17:36:40.754Z,98506.03
2023-04-12T17:39:14.715Z,98503.88
2023-04-12T17:41:44.415Z,98503.53
2023-04-12T17:44:17.698Z,98501.06
2023-04-12T17:46:46.199Z,98506.50
2023-04-12T17:49:14.215Z,98507.81
2023-04-12T17:51:42.259Z,98505.81
2023-04-12T17:54:11.668Z,98505.34
2023-04-12T17:56:39.815Z,98505.75
2023-04-12T17:59:08.220Z,98503.00
2023-04-12T18:01:36.871Z,98505.50
2023-04-12T18:04:07.916Z,98504.84
2023-04-12T18:06:35.367Z,98504.53
2023-04-12T18:09:03.682Z,98507.09
2023-04-12T18:11:39.522Z,98508.34
2023-04-12T18:14:09.438Z,98512.13
2023-04-12T18:16:40.531Z,98507.75
2023-04-12T18:19:10.645Z,98506.63
2023-04-12T18:21:39.151Z,98507.56
2023-04-12T18:24:07.753Z,98504.34
2023-04-12T18:26:37.409Z,98498.09
2023-04-12T18:29:05.477Z,98501.28
2023-04-12T18:31:33.522Z,98506.09
2023-04-12T18:34:04.410Z,98508.34
2023-04-12T18:36:33.372Z,98499.88
2023-04-12T18:39:13.305Z,98493.47
2023-04-12T18:41:41.960Z,98502.13
2023-04-12T18:44:10.759Z,98510.59
2023-04-12T18:46:42.316Z,98505.16
2023-04-12T18:49:10.254Z,98508.91
2023-04-12T18:51:38.373Z,98516.09
2023-04-12T18:54:09.252Z,98510.47
2023-04-12T18:56:37.970Z,98511.16
2023-04-12T18:59:07.968Z,98518.75
2023-04-12T19:01:37.132Z,98522.41
2023-04-12T19:04:09.130Z,98524.56
2023-04-12T19:06:43.536Z,98530.75
2023-04-12T19:09:12.230Z,98528.47
2023-04-12T19:11:42.401Z,98522.22
2023-04-12T19:14:11.256Z,98524.09
2023-04-12T19:16:42.833Z,98524.44
2023-04-12T19:19:12.075Z,98522.88
2023-04-12T19:21:41.650Z,98522.84
2023-04-12T19:24:12.394Z,98513.75
2023-04-12T19:26:47.593Z,98518.56
2023-04-12T19:29:22.028Z,98519.47
2023-04-12T19:31:55.161Z,98513.75
2023-04-12T19:34:24.951Z,98511.31
2023-04-12T19:36:52.235Z,98509.34
2023-04-12T19:39:23.668Z,98510.19
2023-04-12T19:41:53.754Z,98505.69
2023-04-12T19:44:21.630Z,98503.47
2023-04-12T19:46:50.059Z,98511.13
2023-04-12T19:49:18.271Z,98495.78
2023-04-12T19:51:51.115Z,98499.38
2023-04-12T19:54:23.712Z,98490.25
2023-04-12T19:56:55.061Z,98497.00
2023-04-12T19:59:27.769Z,98490.06
2023-04-12T20:01:58.839Z,98496.44
2023-04-12T20:04:31.674Z,98492.72
2023-04-12T20:07:04.178Z,98491.19
2023-04-12T20:09:33.623Z,98491.94
2023-04-12T20:12:02.797Z,98490.00
2023-04-12T20:14:30.683Z,98485.59
2023-04-12T20:16:59.953Z,98495.44
2023-04-12T20:19:29.668Z,98490.31
2023-04-12T20:22:04.200Z,98493.22
2023-04-12T20:24:38.470Z,98488.84
2023-04-12T20:27:09.613Z,98483.13
2023-04-12T20:29:40.304Z,98487.91
2023-04-12T20:32:10.580Z,98490.59
2023-04-12T20:34:42.866Z,98492.13
2023-04-12T20:37:10.978Z,98492.47
2023-04-12T20:39:45.548Z,98488.06
2023-04-12T20:42:17.256Z,98489.75
2023-04-12T20:44:46.176Z,98473.94
2023-04-12T20:47:14.559Z,98479.91
2023-04-12T20:49:43.189Z,98480.84
2023-04-12T20:52:11.407Z,98474.03
2023-04-12T20:54:40.205Z,98463.09
2023-04-12T20:57:10.731Z,98460.69
2023-04-12T20:59:44.389Z,98463.78
2023-04-12T21:02:11.358Z,98466.31
2023-04-12T21:04:45.507Z,98458.50
2023-04-12T21:07:13.929Z,98452.53
2023-04-12T21:09:41.358Z,98456.78
2023-04-12T21:12:09.075Z,98458.81
2023-04-12T21:14:38.004Z,98459.16
2023-04-12T21:17:07.375Z,98443.09
2023-04-12T21:19:41.976Z,98449.97
2023-04-12T21:22:09.286Z,98454.53
2023-04-12T21:24:38.695Z,98443.94
2023-04-12T21:27:10.322Z,98445.72
2023-04-12T21:29:41.609Z,98448.28
2023-04-12T21:32:15.028Z,98437.13
2023-04-12T21:34:42.538Z,98438.53
2023-04-12T21:37:11.223Z,98438.53
2023-04-12T21:39:44.461Z,98449.38
2023-04-12T21:42:12.021Z,98442.38
2023-04-12T21:44:42.239Z,98436.13
2023-04-12T21:47:09.511Z,98432.66
2023-04-12T21:49:39.008Z,98431.00
2023-04-12T21:52:07.552Z,98426.38
2023-04-12T21:54:37.184Z,98429.19
2023-04-12T21:57:06.492Z,98427.50
2023-04-12T21:59:35.006Z,98428.94
2023-04-12T22:02:02.147Z,98433.56
2023-04-12T22:04:29.823Z,98423.44
2023-04-12T22:06:58.501Z,98420.84
2023-04-12T22:09:28.809Z,98418.56
2023-04-12T22:11:57.051Z,98417.16
2023-04-12T22:14:25.283Z,98421.03
2023-04-12T22:16:52.775Z,98417.94
2023-04-12T22:19:20.394Z,98410.75
2023-04-12T22:21:48.994Z,98417.25
2023-04-12T22:24:17.737Z,98412.06
2023-04-12T22:26:46.100Z,98411.47
2023-04-12T22:29:13.768Z,98417.97
2023-04-12T22:31:41.064Z,98406.66
2023-04-12T22:34:08.737Z,98410.22
2023-04-12T22:36:37.696Z,98406.59
2023-04-12T22:39:07.025Z,98403.53
2023-04-12T22:41:35.726Z,98401.84
2023-04-12T22:44:09.713Z,98405.72
2023-04-12T22:46:39.165Z,98400.59
2023-04-12T22:49:07.475Z,98392.94
2023-04-12T22:51:35.083Z,98390.25
2023-04-12T22:54:02.947Z,98393.97
2023-04-12T22:56:30.483Z,98394.81
2023-04-12T22:58:58.084Z,98385.28
2023-04-12T23:01:26.393Z,98381.25
2023-04-12T23:03:54.496Z,98385.75
2023-04-12T23:06:22.103Z,98394.53
2023-04-12T23:08:49.944Z,98385.03
2023-04-12T23:11:18.284Z,98392.84
2023-04-12T23:13:45.825Z,98389.38
2023-04-12T23:16:13.333Z,98383.25
2023-04-12T23:18:40.670Z,98375.13
2023-04-12T23:21:11.389Z,98370.25
2023-04-12T23:23:38.885Z,98360.88
2023-04-12T23:26:06.359Z,98365.59
2023-04-12T23:28:34.563Z,98360.47
2023-04-12T23:31:02.145Z,98355.34
2023-04-12T23:33:29.488Z,98359.22
2023-04-12T23:35:57.314Z,98358.53
2023-04-12T23:38:38.812Z,98355.81
2023-04-12T23:41:07.978Z,98358.56
2023-04-12T23:43:41.529Z,98364.50
2023-04-12T23:46:09.720Z,98368.03
2023-04-12T23:48:37.881Z,98360.78
2023-04-12T23:51:07.684Z,98360.84
2023-04-12T23:53:34.757Z,98364.53
2023-04-12T23:56:02.373Z,98353.19
2023-04-12T23:58:29.736Z,98358.38
